100 Mile House, British Columbia

1:59 AM PDT on August 22, 2014 (GMT -0700)
108 Ranch | Change Station
CLOSE
Current Station
Personal Weather Station
Location: 108 Mile Ranch, BRITISH COLUMBIA
Elevation: 3077 ft
Nearby Weather Stations

Elev 3077 ft 51.74 °N, 121.37 °W | Updated 12 minutes ago

Clear
Clear
42.8 °F
Feels Like 43 °F
N
0.0
Wind Variable Wind from NE

Today
High -- | Low -- °F
--% Chance of Precip.
Yesterday
High -- | Low -- °F
Precip. -- in
6:01 AM 8:13 PM
Waning Crescent, 9% visible
Pressure 30.10 in
Visibility 9.0 miles
Clouds Clear
Windchill 43 °F
Dew Point 42 °F
Humidity 98%
Rainfall 0.00 in
Snow Depth Not available.
UV 0 out of 12
Pollen Not available.
Air Quality Not available.
Flu Activity Not available.
METAR CYIN 220800Z AUTO 00000KT 9SM CLR 04/02 A3008 RMK SLP191

More Conditions Fewer Conditions

Pressure 30.10 in
Visibility 9.0 miles
Clouds Clear
Windchill 43 °F
Dew Point 42 °F
Humidity 98%
Rainfall 0.00 in
Snow Depth Not available.
UV 0 out of 12
Pollen Not available.
Air Quality Not available.
Flu Activity Not available.
METAR CYIN 220800Z AUTO 00000KT 9SM CLR 04/02 A3008 RMK SLP191

More Conditions Fewer Conditions

10-Day Weather Forecast

Almanac

Astronomy

Aug. 22, 2014 Rise Set
Actual Time 6:01 AM PDT 8:13 PM PDT
Civil Twilight 5:25 AM PDT 8:50 PM PDT
Nautical Twilight 4:39 AM PDT 9:35 PM PDT
Astronomical Twilight 3:46 AM PDT 10:28 PM PDT
Moon 3:20 AM PDT 6:31 PM PDT
Length of Visible Light 15h 24m
Length of Day
14h 11m
Tomorrow will be 3m 45s shorter.
Waning Crescent, 9% of the Moon is Illuminated
Today
Waning Crescent
Aug 25
New
Sep 2
First Quarter
Sep 8
Full
Sep 15
Last Quarter

Yesterday's Extremes

Country Highs Country Lows

Community

WunderPhotos

Upload Photos

1,746,144 photos uploaded!

Nearby

Snow Depth

Not available.

Earthquake Activity

City Distance Mag. Time & Date
No recent earthquake activity has been reported nearby.
Minimum magnitude displayed is 2.5.

Coastal Water Temperatures

Place Temperature
No Stations Reporting

Nearby Weather Stations